createdAt,value
2022-12-19T00:01:38.890Z,12.63
2022-12-19T00:04:10.250Z,15.07
2022-12-19T00:06:43.826Z,14.15
2022-12-19T00:11:39.038Z,11.98
2022-12-19T00:14:06.376Z,12.02
2022-12-19T00:16:33.208Z,13.05
2022-12-19T00:19:01.652Z,12.98
2022-12-19T00:21:31.051Z,12.40
2022-12-19T00:24:01.895Z,12.73
2022-12-19T00:26:30.982Z,11.82
2022-12-19T00:29:09.919Z,11.82
2022-12-19T00:31:40.886Z,14.38
2022-12-19T00:34:09.343Z,11.75
2022-12-19T00:36:36.185Z,14.98
2022-12-19T00:39:08.131Z,13.68
2022-12-19T00:41:37.511Z,13.05
2022-12-19T00:44:11.900Z,13.82
2022-12-19T00:46:38.963Z,13.43
2022-12-19T00:49:06.349Z,12.75
2022-12-19T00:51:35.820Z,12.85
2022-12-19T00:54:03.089Z,13.38
2022-12-19T00:56:37.246Z,14.02
2022-12-19T00:59:06.871Z,14.38
2022-12-19T01:01:37.093Z,14.38
2022-12-19T01:07:01.602Z,12.80
2022-12-19T01:09:33.402Z,13.80
2022-12-19T01:12:18.757Z,12.55
2022-12-19T01:14:48.145Z,12.73
2022-12-19T01:17:15.066Z,13.38
2022-12-19T01:19:44.387Z,13.27
2022-12-19T01:22:13.539Z,11.48
2022-12-19T01:24:40.743Z,12.38
2022-12-19T01:27:07.649Z,13.07
2022-12-19T01:29:34.700Z,12.80
2022-12-19T01:32:04.549Z,12.50
2022-12-19T01:34:31.998Z,12.85
2022-12-19T01:36:58.907Z,14.38
2022-12-19T01:39:25.785Z,14.55
2022-12-19T01:41:54.695Z,14.60
2022-12-19T01:44:24.912Z,16.58
2022-12-19T01:46:57.996Z,16.90
2022-12-19T01:49:37.088Z,14.23
2022-12-19T01:52:07.802Z,14.60
2022-12-19T01:54:40.251Z,14.70
2022-12-19T01:57:10.868Z,16.88
2022-12-19T01:59:44.912Z,15.50
2022-12-19T02:04:46.203Z,13.45
2022-12-19T02:07:16.572Z,14.27
2022-12-19T02:09:54.145Z,13.20
2022-12-19T02:12:26.275Z,14.27
2022-12-19T02:14:56.041Z,13.70
2022-12-19T02:17:53.479Z,13.98
2022-12-19T02:20:41.412Z,15.05
2022-12-19T02:23:39.025Z,16.23
2022-12-19T02:26:50.934Z,14.98
2022-12-19T02:29:50.177Z,12.90
2022-12-19T02:32:23.787Z,13.70
2022-12-19T02:35:01.427Z,13.50
2022-12-19T02:37:36.691Z,13.32
2022-12-19T02:40:21.598Z,12.60
2022-12-19T02:42:53.277Z,15.90
2022-12-19T02:45:28.515Z,14.57
2022-12-19T02:48:03.353Z,13.60
2022-12-19T02:50:42.292Z,14.75
2022-12-19T02:53:12.689Z,14.75
2022-12-19T02:56:09.837Z,13.80
2022-12-19T02:59:06.761Z,12.80
2022-12-19T03:01:33.767Z,13.20
2022-12-19T03:04:17.251Z,12.68
2022-12-19T03:07:01.689Z,14.07
2022-12-19T03:09:46.521Z,12.23
2022-12-19T03:12:22.563Z,11.55
2022-12-19T03:14:52.208Z,14.13
2022-12-19T03:17:19.298Z,13.65
2022-12-19T03:19:46.353Z,14.80
2022-12-19T03:22:13.225Z,14.18
2022-12-19T03:24:40.324Z,14.60
2022-12-19T03:27:20.551Z,16.05
2022-12-19T03:30:02.503Z,15.02
2022-12-19T03:32:31.325Z,14.82
2022-12-19T03:35:06.885Z,16.00
2022-12-19T03:37:38.576Z,13.07
2022-12-19T03:40:17.833Z,13.82
2022-12-19T03:43:05.279Z,13.75
2022-12-19T03:46:01.494Z,11.95
2022-12-19T03:48:32.448Z,14.38
2022-12-19T03:51:24.802Z,12.70
2022-12-19T03:54:00.252Z,11.40
2022-12-19T03:56:30.119Z,11.27
2022-12-19T03:59:04.900Z,12.57
2022-12-19T04:01:33.953Z,13.63
2022-12-19T04:04:01.864Z,12.93
2022-12-19T04:06:34.171Z,13.63
2022-12-19T04:09:02.286Z,15.60
2022-12-19T04:11:36.295Z,15.82
2022-12-19T04:16:43.057Z,12.48
2022-12-19T04:19:29.548Z,14.38
2022-12-19T04:22:04.335Z,16.23
2022-12-19T04:24:35.928Z,14.88
2022-12-19T04:27:05.266Z,14.40
2022-12-19T04:29:35.193Z,16.52
2022-12-19T04:32:03.891Z,16.58
2022-12-19T04:34:32.240Z,16.13
2022-12-19T04:36:59.591Z,15.48
2022-12-19T04:39:27.445Z,16.95
2022-12-19T04:41:54.219Z,15.93
2022-12-19T04:44:21.671Z,15.25
2022-12-19T04:46:48.495Z,16.40
2022-12-19T04:49:15.307Z,15.73
2022-12-19T04:51:42.097Z,15.43
2022-12-19T04:54:09.199Z,16.48
2022-12-19T04:56:36.011Z,17.50
2022-12-19T04:59:02.797Z,17.60
2022-12-19T05:01:29.709Z,17.35
2022-12-19T05:03:59.999Z,17.75
2022-12-19T05:06:31.135Z,18.38
2022-12-19T05:08:57.937Z,17.67
2022-12-19T05:11:24.733Z,18.95
2022-12-19T05:13:51.676Z,18.02
2022-12-19T05:16:19.198Z,18.63
2022-12-19T05:18:46.337Z,18.17
2022-12-19T05:21:13.655Z,18.15
2022-12-19T05:23:40.488Z,18.58
2022-12-19T05:26:07.874Z,19.65
2022-12-19T05:28:35.344Z,16.95
2022-12-19T05:31:04.361Z,16.98
2022-12-19T05:33:31.244Z,18.58
2022-12-19T05:35:58.152Z,18.33
2022-12-19T05:38:26.039Z,18.23
2022-12-19T05:40:52.849Z,16.27
2022-12-19T05:43:19.661Z,19.10
2022-12-19T05:45:46.528Z,18.20
2022-12-19T05:48:14.549Z,18.25
2022-12-19T05:50:41.448Z,18.27
2022-12-19T05:53:09.536Z,18.33
2022-12-19T05:55:36.622Z,17.08
2022-12-19T05:58:03.464Z,16.80
2022-12-19T06:00:30.269Z,17.95
2022-12-19T06:02:57.130Z,17.80
2022-12-19T06:05:24.011Z,17.42
2022-12-19T06:07:50.800Z,19.15
2022-12-19T06:10:17.633Z,18.73
2022-12-19T06:12:44.500Z,18.73
2022-12-19T06:15:11.853Z,18.50
2022-12-19T06:17:38.620Z,18.85
2022-12-19T06:20:06.664Z,19.08
2022-12-19T06:22:35.003Z,17.23
2022-12-19T06:25:01.892Z,16.30
2022-12-19T06:27:28.996Z,17.27
2022-12-19T06:29:55.785Z,16.85
2022-12-19T06:32:22.583Z,17.15
2022-12-19T06:35:04.069Z,17.25
2022-12-19T06:37:31.344Z,14.82
2022-12-19T06:39:58.134Z,14.13
2022-12-19T06:42:25.430Z,15.77
2022-12-19T06:44:54.165Z,17.05
2022-12-19T06:47:22.339Z,17.65
2022-12-19T06:49:49.547Z,16.65
2022-12-19T06:52:17.501Z,17.45
2022-12-19T06:54:44.514Z,16.92
2022-12-19T06:57:11.410Z,17.02
2022-12-19T06:59:38.204Z,17.98
2022-12-19T07:02:24.823Z,18.42
2022-12-19T07:05:00.074Z,17.48
2022-12-19T07:07:28.621Z,17.45
2022-12-19T07:09:55.486Z,17.50
2022-12-19T07:12:22.348Z,17.10
2022-12-19T07:14:53.321Z,18.92
2022-12-19T07:17:23.458Z,20.45
2022-12-19T07:19:50.804Z,19.88
2022-12-19T07:22:17.716Z,19.27
2022-12-19T07:24:44.742Z,19.27
2022-12-19T07:27:11.809Z,19.02
2022-12-19T07:29:38.599Z,17.48
2022-12-19T07:32:05.471Z,17.27
2022-12-19T07:34:32.303Z,17.23
2022-12-19T07:36:59.143Z,17.67
2022-12-19T07:39:25.989Z,17.23
2022-12-19T07:41:52.876Z,17.40
2022-12-19T07:44:30.013Z,17.02
2022-12-19T07:46:57.369Z,17.25
2022-12-19T07:49:24.295Z,15.95
2022-12-19T07:51:51.122Z,16.65
2022-12-19T07:54:17.907Z,15.15
2022-12-19T07:56:44.745Z,16.95
2022-12-19T07:59:13.091Z,15.65
2022-12-19T08:01:40.153Z,16.60
2022-12-19T08:04:07.027Z,16.25
2022-12-19T08:06:39.098Z,14.35
2022-12-19T08:09:07.809Z,15.95
2022-12-19T08:11:34.827Z,14.50
2022-12-19T08:14:01.626Z,15.63
2022-12-19T08:16:28.617Z,15.07
2022-12-19T08:18:55.798Z,15.00
2022-12-19T08:21:23.323Z,15.15
2022-12-19T08:23:51.962Z,16.52
2022-12-19T08:26:27.754Z,16.80
2022-12-19T08:28:58.162Z,18.90
2022-12-19T08:31:27.308Z,17.27
2022-12-19T08:33:55.712Z,15.63
2022-12-19T08:36:23.427Z,16.73
2022-12-19T08:38:50.937Z,17.85
2022-12-19T08:41:18.339Z,19.23
2022-12-19T08:43:53.915Z,19.15
2022-12-19T08:46:21.485Z,19.55
2022-12-19T08:48:48.608Z,19.52
2022-12-19T08:51:16.879Z,18.55
2022-12-19T08:53:45.372Z,17.90
2022-12-19T08:56:20.497Z,18.50
2022-12-19T08:58:48.058Z,18.00
2022-12-19T09:01:19.219Z,16.65
2022-12-19T09:04:42.683Z,17.20
2022-12-19T09:06:34.918Z,16.98
2022-12-19T09:09:03.922Z,16.92
2022-12-19T09:11:31.233Z,19.20
2022-12-19T09:13:58.582Z,16.45
2022-12-19T09:16:27.769Z,17.27
2022-12-19T09:18:57.064Z,17.98
2022-12-19T09:21:25.508Z,18.73
2022-12-19T09:24:03.508Z,16.70
2022-12-19T09:26:34.799Z,17.33
2022-12-19T09:29:01.840Z,18.15
2022-12-19T09:31:29.889Z,16.60
2022-12-19T09:33:56.779Z,17.98
2022-12-19T09:36:25.471Z,19.52
2022-12-19T09:38:56.941Z,18.77
2022-12-19T09:41:48.609Z,17.85
2022-12-19T09:44:32.203Z,18.27
2022-12-19T09:47:05.268Z,17.53
2022-12-19T09:49:42.891Z,17.67
2022-12-19T09:52:35.818Z,17.90
2022-12-19T09:55:23.868Z,17.40
2022-12-19T09:58:18.635Z,15.82
2022-12-19T10:03:39.871Z,15.10
2022-12-19T10:07:15.901Z,15.38
2022-12-19T10:10:33.825Z,16.50
2022-12-19T10:12:44.874Z,16.50
2022-12-19T10:15:16.320Z,16.58
2022-12-19T10:18:09.040Z,16.20
2022-12-19T10:20:54.682Z,16.33
2022-12-19T10:23:33.834Z,17.15
2022-12-19T10:26:11.279Z,17.05
2022-12-19T10:28:52.659Z,16.98
2022-12-19T10:31:29.727Z,16.45
2022-12-19T10:34:19.028Z,17.42
2022-12-19T10:37:26.611Z,17.00
2022-12-19T10:40:28.035Z,18.17
2022-12-19T10:43:10.397Z,18.35
2022-12-19T10:46:00.373Z,17.25
2022-12-19T10:48:30.612Z,17.30
2022-12-19T10:51:02.538Z,17.83
2022-12-19T10:53:34.052Z,17.95
2022-12-19T10:56:11.800Z,17.80
2022-12-19T10:58:43.214Z,17.05
2022-12-19T11:01:24.567Z,15.88
2022-12-19T11:04:16.365Z,18.13
2022-12-19T11:07:02.984Z,15.68
2022-12-19T11:09:35.720Z,16.55
2022-12-19T11:16:04.718Z,17.98
2022-12-19T11:19:58.131Z,14.23
2022-12-19T11:24:28.496Z,15.32
2022-12-19T11:29:31.405Z,12.10
2022-12-19T11:30:45.321Z,13.88
2022-12-19T11:32:41.851Z,14.90
2022-12-19T11:35:25.123Z,16.10
2022-12-19T11:37:58.659Z,16.25
2022-12-19T11:40:34.291Z,18.57
2022-12-19T11:46:17.646Z,15.73
2022-12-19T11:48:53.690Z,16.45
2022-12-19T11:51:37.446Z,17.27
2022-12-19T11:54:09.974Z,12.40
2022-12-19T11:56:36.817Z,15.52
2022-12-19T11:59:15.423Z,16.25
2022-12-19T12:02:18.678Z,15.55
2022-12-19T12:05:08.217Z,16.35
2022-12-19T12:08:25.457Z,16.48
2022-12-19T12:18:43.581Z,16.48
2022-12-19T12:25:16.015Z,16.23
2022-12-19T12:31:03.928Z,15.13
2022-12-19T12:31:08.294Z,16.60
2022-12-19T12:31:21.384Z,15.73
2022-12-19T12:31:57.250Z,15.73
2022-12-19T12:32:04.343Z,15.55
2022-12-19T12:35:40.501Z,15.65
2022-12-19T12:39:05.046Z,18.38
2022-12-19T12:41:50.202Z,16.27
2022-12-19T12:44:17.725Z,15.45
2022-12-19T12:47:14.994Z,16.90
2022-12-19T12:49:45.914Z,16.60
2022-12-19T12:52:18.713Z,17.17
2022-12-19T12:54:48.945Z,15.70
2022-12-19T12:57:26.833Z,16.58
2022-12-19T13:00:28.090Z,17.17
2022-12-19T13:03:10.773Z,15.82
2022-12-19T13:05:43.900Z,15.98
2022-12-19T13:08:32.809Z,16.10
2022-12-19T13:11:02.497Z,17.17
2022-12-19T13:13:51.754Z,14.93
2022-12-19T13:16:44.570Z,13.85
2022-12-19T13:19:28.024Z,15.15
2022-12-19T13:22:16.127Z,10.80
2022-12-19T13:24:55.011Z,14.48
2022-12-19T13:27:21.785Z,16.70
2022-12-19T13:30:01.028Z,16.83
2022-12-19T13:32:33.070Z,16.17
2022-12-19T13:35:32.863Z,13.23
2022-12-19T13:39:59.749Z,15.75
2022-12-19T13:41:22.444Z,16.30
2022-12-19T13:43:49.874Z,14.15
2022-12-19T13:46:22.571Z,13.35
2022-12-19T13:49:19.480Z,13.77
2022-12-19T13:51:55.805Z,13.98
2022-12-19T13:54:29.126Z,13.25
2022-12-19T13:56:59.345Z,14.93
2022-12-19T13:59:36.647Z,13.85
2022-12-19T14:02:28.730Z,15.57
2022-12-19T14:04:56.215Z,13.45
2022-12-19T14:07:36.005Z,13.43
2022-12-19T14:11:36.934Z,14.80
2022-12-19T14:14:00.670Z,15.60
2022-12-19T14:16:18.429Z,15.35
2022-12-19T14:18:50.157Z,15.52
2022-12-19T14:22:04.748Z,15.77
2022-12-19T14:24:15.032Z,13.95
2022-12-19T14:28:20.806Z,14.63
2022-12-19T14:30:29.716Z,13.45
2022-12-19T14:33:44.434Z,17.08
2022-12-19T14:36:08.840Z,16.75
2022-12-19T14:39:25.135Z,15.55
2022-12-19T14:41:47.920Z,16.48
2022-12-19T14:51:43.021Z,16.40
2022-12-19T14:54:02.818Z,14.65
2022-12-19T14:54:05.506Z,16.17
2022-12-19T14:54:50.269Z,13.52
2022-12-19T14:58:58.393Z,14.00
2022-12-19T15:01:31.864Z,14.35
2022-12-19T15:04:52.704Z,16.10
2022-12-19T15:07:08.731Z,16.38
2022-12-19T15:11:07.186Z,15.85
2022-12-19T15:14:51.166Z,14.95
2022-12-19T15:16:05.826Z,13.57
2022-12-19T15:18:32.881Z,13.05
2022-12-19T15:21:08.023Z,14.77
2022-12-19T15:23:35.099Z,15.15
2022-12-19T15:26:11.269Z,15.88
2022-12-19T15:28:48.343Z,14.77
2022-12-19T15:31:26.326Z,15.25
2022-12-19T15:34:33.045Z,15.85
2022-12-19T15:36:40.358Z,12.77
2022-12-19T15:39:07.172Z,12.20
2022-12-19T15:41:34.456Z,13.38
2022-12-19T15:44:20.280Z,13.27
2022-12-19T15:46:49.228Z,14.50
2022-12-19T15:49:21.004Z,14.13
2022-12-19T15:51:48.672Z,13.88
2022-12-19T15:57:03.262Z,15.27
2022-12-19T15:59:44.934Z,16.33
2022-12-19T16:02:21.630Z,16.55
2022-12-19T16:04:50.927Z,16.58
2022-12-19T16:07:23.015Z,15.77
2022-12-19T16:09:50.196Z,15.85
2022-12-19T16:12:20.636Z,15.55
2022-12-19T16:14:53.508Z,15.70
2022-12-19T16:17:22.543Z,15.68
2022-12-19T16:19:50.012Z,15.45
2022-12-19T16:22:22.807Z,16.08
2022-12-19T16:24:51.316Z,16.75
2022-12-19T16:27:29.530Z,16.70
2022-12-19T16:30:02.409Z,15.40
2022-12-19T16:32:29.203Z,14.45
2022-12-19T16:34:56.055Z,14.85
2022-12-19T16:37:28.590Z,15.77
2022-12-19T16:39:57.285Z,15.70
2022-12-19T16:42:24.084Z,17.38
2022-12-19T16:44:51.018Z,15.45
2022-12-19T16:47:18.291Z,14.95
2022-12-19T16:49:45.260Z,16.13
2022-12-19T16:52:12.287Z,17.23
2022-12-19T16:54:39.435Z,17.90
2022-12-19T16:57:14.817Z,17.80
2022-12-19T16:59:41.874Z,17.90
2022-12-19T17:02:42.174Z,16.90
2022-12-19T17:05:23.176Z,17.90
2022-12-19T17:07:51.245Z,16.75
2022-12-19T17:10:25.847Z,16.77
2022-12-19T17:12:54.522Z,15.57
2022-12-19T17:15:30.632Z,15.23
2022-12-19T17:18:00.820Z,16.05
2022-12-19T17:20:34.511Z,16.35
2022-12-19T17:23:01.329Z,16.63
2022-12-19T17:25:28.808Z,16.08
2022-12-19T17:27:56.269Z,15.93
2022-12-19T17:30:23.073Z,16.88
2022-12-19T17:32:52.861Z,17.58
2022-12-19T17:35:27.869Z,19.63
2022-12-19T17:37:56.639Z,20.33
2022-12-19T17:40:26.417Z,19.80
2022-12-19T17:42:54.678Z,18.45
2022-12-19T17:45:23.525Z,19.77
2022-12-19T17:47:55.567Z,18.98
2022-12-19T17:50:28.636Z,21.38
2022-12-19T17:52:56.550Z,21.98
2022-12-19T17:55:26.069Z,20.15
2022-12-19T17:57:53.356Z,20.42
2022-12-19T18:00:28.406Z,17.50
2022-12-19T18:02:57.852Z,18.00
2022-12-19T18:05:31.705Z,18.85
2022-12-19T18:07:58.469Z,18.98
2022-12-19T18:10:28.656Z,17.95
2022-12-19T18:12:55.934Z,19.13
2022-12-19T18:15:24.062Z,18.17
2022-12-19T18:17:52.614Z,16.67
2022-12-19T18:20:32.292Z,16.77
2022-12-19T18:23:00.128Z,16.42
2022-12-19T18:25:30.952Z,16.45
2022-12-19T18:27:58.279Z,15.45
2022-12-19T18:30:25.664Z,16.05
2022-12-19T18:32:59.100Z,15.45
2022-12-19T18:35:40.661Z,14.27
2022-12-19T18:38:12.869Z,15.75
2022-12-19T18:40:39.905Z,15.65
2022-12-19T18:43:06.835Z,16.42
2022-12-19T18:45:39.953Z,14.55
2022-12-19T18:48:12.910Z,15.98
2022-12-19T18:50:40.120Z,14.73
2022-12-19T18:53:13.827Z,15.43
2022-12-19T18:55:40.854Z,16.35
2022-12-19T18:58:07.655Z,15.35
2022-12-19T19:00:35.566Z,17.40
2022-12-19T19:03:05.150Z,16.65
2022-12-19T19:05:35.866Z,16.58
2022-12-19T19:08:17.737Z,16.40
2022-12-19T19:10:50.244Z,16.20
2022-12-19T19:13:20.178Z,15.57
2022-12-19T19:15:57.327Z,16.98
2022-12-19T19:18:34.181Z,16.75
2022-12-19T19:21:02.333Z,16.60
2022-12-19T19:23:40.723Z,17.67
2022-12-19T19:26:07.598Z,17.55
2022-12-19T19:28:37.192Z,16.45
2022-12-19T19:31:08.981Z,19.40
2022-12-19T19:33:43.057Z,20.80
2022-12-19T19:36:14.021Z,25.52
2022-12-19T19:38:43.936Z,24.40
2022-12-19T19:41:10.871Z,20.25
2022-12-19T19:43:37.750Z,18.63
2022-12-19T19:46:04.820Z,17.77
2022-12-19T19:48:31.793Z,17.33
2022-12-19T19:50:58.911Z,17.20
2022-12-19T19:53:26.057Z,18.70
2022-12-19T19:55:57.402Z,16.63
2022-12-19T19:58:24.340Z,17.65
2022-12-19T20:00:51.303Z,18.73
2022-12-19T20:03:22.547Z,16.58
2022-12-19T20:05:50.554Z,17.38
2022-12-19T20:08:17.437Z,16.27
2022-12-19T20:10:44.350Z,15.18
2022-12-19T20:13:11.310Z,15.88
2022-12-19T20:15:39.882Z,16.77
2022-12-19T20:18:09.921Z,16.23
2022-12-19T20:20:36.904Z,17.85
2022-12-19T20:23:05.928Z,18.15
2022-12-19T20:25:35.211Z,17.33
2022-12-19T20:28:02.889Z,15.98
2022-12-19T20:30:29.711Z,15.32
2022-12-19T20:32:57.202Z,15.32
2022-12-19T20:35:24.175Z,15.18
2022-12-19T20:37:51.003Z,16.17
2022-12-19T20:40:17.887Z,16.15
2022-12-19T20:42:44.733Z,16.05
2022-12-19T20:45:11.540Z,15.95
2022-12-19T20:47:38.420Z,15.52
2022-12-19T20:50:06.076Z,16.65
2022-12-19T20:52:32.955Z,17.95
2022-12-19T20:54:59.764Z,17.05
2022-12-19T20:57:29.998Z,16.75
2022-12-19T20:59:56.849Z,17.10
2022-12-19T21:02:23.791Z,17.25
2022-12-19T21:04:50.996Z,16.85
2022-12-19T21:07:17.936Z,16.80
2022-12-19T21:09:45.255Z,15.68
2022-12-19T21:12:12.533Z,14.50
2022-12-19T21:14:39.328Z,15.57
2022-12-19T21:17:06.121Z,15.05
2022-12-19T21:19:32.971Z,14.55
2022-12-19T21:21:59.789Z,15.45
2022-12-19T21:24:26.804Z,14.73
2022-12-19T21:26:57.930Z,15.48
2022-12-19T21:29:25.593Z,16.38
2022-12-19T21:31:52.471Z,15.32
2022-12-19T21:34:19.484Z,15.07
2022-12-19T21:36:46.328Z,14.48
2022-12-19T21:39:13.373Z,13.73
2022-12-19T21:41:40.233Z,14.40
2022-12-19T21:44:07.128Z,14.70
2022-12-19T21:46:34.093Z,15.65
2022-12-19T21:49:02.903Z,14.20
2022-12-19T21:51:31.756Z,14.73
2022-12-19T21:54:01.239Z,15.90
2022-12-19T21:56:31.997Z,14.55
2022-12-19T21:59:01.942Z,13.57
2022-12-19T22:01:30.490Z,15.43
2022-12-19T22:04:09.356Z,15.07
2022-12-19T22:06:37.563Z,14.18
2022-12-19T22:09:07.287Z,15.60
2022-12-19T22:11:36.080Z,14.60
2022-12-19T22:14:05.061Z,14.40
2022-12-19T22:16:33.046Z,15.10
2022-12-19T22:19:00.023Z,17.10
2022-12-19T22:21:27.876Z,16.85
2022-12-19T22:23:59.491Z,15.63
2022-12-19T22:26:29.031Z,14.70
2022-12-19T22:28:57.180Z,13.70
2022-12-19T22:31:28.947Z,15.07
2022-12-19T22:33:59.263Z,14.80
2022-12-19T22:36:28.957Z,16.02
2022-12-19T22:38:57.491Z,16.90
2022-12-19T22:41:25.009Z,16.13
2022-12-19T22:43:52.866Z,14.15
2022-12-19T22:46:26.549Z,14.73
2022-12-19T22:48:55.567Z,13.73
2022-12-19T22:51:22.433Z,13.40
2022-12-19T22:53:49.353Z,13.80
2022-12-19T22:56:21.455Z,14.02
2022-12-19T22:58:50.580Z,15.25
2022-12-19T23:01:20.484Z,16.52
2022-12-19T23:03:50.167Z,16.33
2022-12-19T23:06:18.480Z,14.63
2022-12-19T23:08:45.951Z,14.55
2022-12-19T23:11:23.325Z,17.38
2022-12-19T23:13:50.226Z,16.15
2022-12-19T23:16:17.239Z,16.38
2022-12-19T23:18:44.393Z,14.75
2022-12-19T23:21:20.303Z,14.82
2022-12-19T23:23:49.497Z,15.65
2022-12-19T23:26:22.191Z,15.00
2022-12-19T23:28:57.584Z,14.65
2022-12-19T23:31:25.629Z,13.20
2022-12-19T23:33:52.582Z,14.23
2022-12-19T23:36:38.241Z,14.32
2022-12-19T23:39:06.741Z,16.20
2022-12-19T23:41:33.549Z,15.02
2022-12-19T23:44:00.522Z,15.60
2022-12-19T23:46:28.171Z,15.35
2022-12-19T23:48:55.311Z,14.45
2022-12-19T23:51:25.200Z,14.45
2022-12-19T23:53:53.480Z,14.20
2022-12-19T23:56:26.386Z,13.05
2022-12-19T23:58:53.603Z,12.27
